Captain Charles Philbrook — WBR5375 — position and weather

sailwx.info

Track history (hours):
 
Tides and Currents Weather Stations Pressure Air Temp Water Temp Dewpoint Dewpoint Depression Visibility Wind Speed Wind Dir Waves Ship Positions

Captain Charles Philbrook

Owner: MAINE STATE FERRY SERVICE, ROCKLAND, ME. More information available from US FCC via Universal Licensing System and Coast Guard Vessel Documentation Center.

Last reported at 2017-Oct-22 21:39 UTC. Time now 2017-Oct-22 22:59 UTC.
Position N 44°02' W 068°51'.

Length 40 m; draft 3.2 m.

Type: Passenger vessel. MMSI: 367342230.

Date/timePositionNaut miles runAvg speedWind from/ knotsBaromVisibWave heightAir tempDewpointWater temp
2017-Oct-22 21:39N 44°02' W 068°51'310.6
2017-Oct-22 21:22N 44°04' W 068°55'411.1
2017-Oct-22 20:58N 44°06' W 069°00'3 2.3
2017-Oct-22 19:51N 44°06' W 069°04'511.1
2017-Oct-22 19:24N 44°05' W 068°57'5 4.2
2017-Oct-22 18:11N 44°03' W 068°51'410.8
2017-Oct-22 17:47N 44°05' W 068°56'6 2.9
2017-Oct-22 15:35N 44°06' W 069°05'111.1
2017-Oct-22 15:30N 44°06' W 069°04'611.7
2017-Oct-22 15:01N 44°05' W 068°56'2 1.9
2017-Oct-22 13:46N 44°04' W 068°53'610.2
2017-Oct-22 13:08N 44°06' W 069°02'3 3.7
2017-Oct-22 12:14N 44°06' W 069°06'3 9.6
2017-Oct-22 11:58N 44°06' W 069°03'611.0
2017-Oct-22 11:27N 44°04' W 068°55'3 0.2
2017-Oct-21 21:34N 44°03' W 068°52'211.1
2017-Oct-21 21:25N 44°04' W 068°54'711.1
2017-Oct-21 20:46N 44°06' W 069°03'2 3.2
2017-Oct-21 20:03N 44°06' W 069°06'1 5.2
2017-Oct-21 19:57N 44°06' W 069°06'510.9
2017-Oct-21 19:30N 44°05' W 068°59'510.3
2017-Oct-21 18:59N 44°03' W 068°53'1 1.7
2017-Oct-21 18:08N 44°02' W 068°51'211.6
2017-Oct-21 18:00N 44°03' W 068°53'611.0
2017-Oct-21 17:28N 44°06' W 069°00'4 2.6
2017-Oct-21 15:44N 44°06' W 069°06'310.1
2017-Oct-21 15:25N 44°06' W 069°02'510.9
2017-Oct-21 15:00N 44°05' W 068°56'4 3.9
2017-Oct-21 13:56N 44°02' W 068°51'510.4
2017-Oct-21 13:25N 44°05' W 068°57'511.1
2017-Oct-21 12:56N 44°06' W 069°04'1 2.3
2017-Oct-21 12:17N 44°06' W 069°06'4 9.6
2017-Oct-21 11:51N 44°06' W 069°01'411.1
2017-Oct-21 11:29N 44°04' W 068°55'3 0.2
2017-Oct-20 21:39N 44°03' W 068°52'211.4
2017-Oct-20 21:29N 44°04' W 068°54'510.9
2017-Oct-20 21:00N 44°06' W 069°01'4 3.4
2017-Oct-20 19:58N 44°06' W 069°05'510.4
2017-Oct-20 19:28N 44°05' W 068°58'510.0
2017-Oct-20 18:59N 44°03' W 068°52'1 0.7
2017-Oct-20 17:56N 44°04' W 068°53'511.3
2017-Oct-20 17:29N 44°06' W 068°60'4 2.3
2017-Oct-20 15:39N 44°06' W 069°05'212.1
2017-Oct-20 15:29N 44°06' W 069°03'510.6
2017-Oct-20 15:00N 44°05' W 068°56'2 1.2
2017-Oct-20 13:45N 44°04' W 068°54'310.6
2017-Oct-20 13:29N 44°05' W 068°57'6 5.1
2017-Oct-20 12:14N 44°06' W 069°06'2 9.7
2017-Oct-20 11:59N 44°06' W 069°03'9 0.7
2017-Oct-19 21:50N 44°02' W 068°51'410.0
2017-Oct-19 21:24N 44°05' W 068°56'610.0
2017-Oct-19 20:50N 44°06' W 069°04'2 4.0
2017-Oct-19 20:18N 44°06' W 069°06'1 3.0
2017-Oct-19 20:00N 44°06' W 069°05'610.2
2017-Oct-19 19:23N 44°05' W 068°57'2 1.5
2017-Oct-19 17:53N 44°04' W 068°54'411.1
2017-Oct-19 17:29N 44°06' W 068°60'5 2.9
2017-Oct-19 15:50N 44°06' W 069°06'5 9.3
2017-Oct-19 15:15N 44°05' W 068°59'310.8
2017-Oct-19 14:58N 44°04' W 068°55'2 1.8
2017-Oct-19 13:49N 44°03' W 068°53'410.4
2017-Oct-19 13:26N 44°05' W 068°57'510.7
2017-Oct-19 13:00N 44°06' W 069°04'2 3.1
2017-Oct-19 12:19N 44°06' W 069°06'3 8.4
2017-Oct-19 11:54N 44°06' W 069°02'611.0
2017-Oct-19 11:19N 44°04' W 068°53'2 0.1
2017-Oct-18 21:40N 44°03' W 068°51'210.5
2017-Oct-18 21:27N 44°04' W 068°54'9 6.8
2017-Oct-18 20:04N 44°06' W 069°06'1 6.4
2017-Oct-18 19:57N 44°06' W 069°05'510.8
2017-Oct-18 19:30N 44°05' W 068°59'5 3.6
2017-Oct-18 18:00N 44°03' W 068°52'611.2
2017-Oct-18 17:27N 44°06' W 068°60'5 3.5
2017-Oct-18 16:05N 44°06' W 069°06'0 1.2
2017-Oct-18 15:56N 44°06' W 069°06'510.0
2017-Oct-18 15:24N 44°06' W 068°59'510.7
2017-Oct-18 14:58N 44°04' W 068°53'2 1.7
2017-Oct-18 13:55N 44°03' W 068°51'610.8
2017-Oct-18 13:23N 44°05' W 068°58'410.9
2017-Oct-18 13:00N 44°06' W 069°04'1 0.8
2017-Oct-18 12:11N 44°06' W 069°05'211.2
2017-Oct-18 12:00N 44°06' W 069°02'510.7
2017-Oct-18 11:31N 44°04' W 068°55'4 0.3
2017-Oct-17 21:51N 44°02' W 068°51'4 9.8
2017-Oct-17 21:26N 44°05' W 068°56'611.0
2017-Oct-17 20:51N 44°06' W 069°04'2 4.3
2017-Oct-17 20:29N 44°06' W 069°06'4 8.8
2017-Oct-17 19:59N 44°06' W 069°00'3 1.2
2017-Oct-17 17:53N 44°06' W 069°04'2 2.2
2017-Oct-17 17:01N 44°06' W 069°06'0 0.0
2017-Oct-17 16:59N 44°06' W 069°06'0 0.0
2017-Oct-17 16:01N 44°06' W 069°06'0 0.9
2017-Oct-17 15:47N 44°06' W 069°06'3 9.4
2017-Oct-17 15:29N 44°06' W 069°02'610.6
2017-Oct-17 14:54N 44°04' W 068°54'2 1.7
2017-Oct-17 13:48N 44°03' W 068°52'510.8
2017-Oct-17 13:19N 44°05' W 068°58'411.0
2017-Oct-17 12:59N 44°06' W 069°04'2 3.1
2017-Oct-17 12:19N 44°06' W 069°06'4 9.1
2017-Oct-17 11:51N 44°06' W 069°01'410.9
2017-Oct-17 11:27N 44°04' W 068°55'3 0.2
2017-Oct-16 21:37N 44°03' W 068°52'210.0
2017-Oct-16 21:23N 44°04' W 068°54'410.6
2017-Oct-16 21:00N 44°05' W 068°60'4 3.2
2017-Oct-16 19:50N 44°06' W 069°05'511.0
2017-Oct-16 19:25N 44°05' W 068°58'3 2.2
2017-Oct-16 17:52N 44°04' W 068°54'511.2
2017-Oct-16 17:27N 44°06' W 069°00'5 4.4
2017-Oct-16 16:25N 44°06' W 069°06'0 0.0
2017-Oct-16 15:56N 44°06' W 069°06'5 7.7
2017-Oct-16 15:15N 44°06' W 068°59'310.2
2017-Oct-16 14:59N 44°05' W 068°56'4 3.8
2017-Oct-16 13:53N 44°02' W 068°51'511.1
2017-Oct-16 13:25N 44°05' W 068°57'611.0
2017-Oct-16 12:52N 44°06' W 069°05'1 0.9
2017-Oct-16 12:14N 44°06' W 069°06'410.8
2017-Oct-16 11:54N 44°06' W 069°01'410.2
2017-Oct-16 11:29N 44°05' W 068°56'3 0.2
2017-Oct-15 21:31N 44°03' W 068°53'010.6
2017-Oct-15 21:29N 44°03' W 068°53'610.4
2017-Oct-15 20:57N 44°06' W 068°60'4 3.8
2017-Oct-15 19:54N 44°06' W 069°06'510.9
2017-Oct-15 19:28N 44°06' W 068°59'5 3.2
2017-Oct-15 17:58N 44°04' W 068°53'610.9
2017-Oct-15 17:27N 44°06' W 069°00'4 2.7
2017-Oct-15 15:48N 44°06' W 069°06'3 8.7
2017-Oct-15 15:29N 44°06' W 069°03'510.5
2017-Oct-15 15:00N 44°05' W 068°56'3 2.2
2017-Oct-15 13:46N 44°03' W 068°53'310.4
2017-Oct-15 13:29N 44°05' W 068°56'6 4.7
2017-Oct-15 12:08N 44°06' W 069°05'211.1
2017-Oct-15 11:59N 44°06' W 069°02'710.9
2017-Oct-15 11:22N 44°04' W 068°53'1 0.1
2017-Oct-14 21:38N 44°03' W 068°52'110.7
2017-Oct-14 21:30N 44°04' W 068°53'510.7
2017-Oct-14 21:00N 44°06' W 069°01'1 0.4
2017-Oct-14 19:36N 44°06' W 069°01'110.9
2017-Oct-14 19:29N 44°06' W 068°59'7 5.5
2017-Oct-14 18:14N 44°02' W 068°51'2 9.9
2017-Oct-14 18:00N 44°04' W 068°53'610.6
2017-Oct-14 17:27N 44°06' W 069°01'4 4.9
2017-Oct-14 16:40N 44°06' W 069°06'0 0.0
2017-Oct-14 16:10N 44°06' W 069°06'0 0.0
2017-Oct-14 15:56N 44°06' W 069°06'3 6.7
2017-Oct-14 15:26N 44°06' W 069°02'710.4
2017-Oct-14 14:45N 44°03' W 068°53'1 1.1
2017-Oct-14 13:37N 44°04' W 068°54'111.3
2017-Oct-14 13:30N 44°05' W 068°56'711.1
2017-Oct-14 12:54N 44°06' W 069°05'0 0.1
2017-Oct-14 12:10N 44°06' W 069°05'210.7
2017-Oct-14 11:58N 44°06' W 069°02'9 0.6
2017-Oct-13 21:47N 44°02' W 068°51'310.4
2017-Oct-13 21:29N 44°04' W 068°55'7 4.6
2017-Oct-13 19:55N 44°06' W 069°04'611.2
2017-Oct-13 19:25N 44°05' W 068°57'1 0.6
2017-Oct-13 17:58N 44°05' W 068°56'610.6
2017-Oct-13 17:26N 44°06' W 069°03'2 1.1
2017-Oct-13 15:41N 44°06' W 069°06'2 9.5
2017-Oct-13 15:30N 44°06' W 069°04'610.8
2017-Oct-13 14:56N 44°04' W 068°55'3 3.0
2017-Oct-13 13:58N 44°03' W 068°52'710.8
2017-Oct-13 13:20N 44°06' W 069°00'2 1.9
2017-Oct-13 12:05N 44°06' W 069°04'111.0
2017-Oct-13 12:00N 44°06' W 069°02'510.9
2017-Oct-13 11:29N 44°04' W 068°55'  
Track history (hours):
 
Tides and Currents Weather Stations Pressure Air Temp Water Temp Dewpoint Dewpoint Depression Visibility Wind Speed Wind Dir Waves Ship Positions

Captain Charles Philbrook

Owner: MAINE STATE FERRY SERVICE, ROCKLAND, ME. More information available from US FCC via Universal Licensing System and Coast Guard Vessel Documentation Center.

Last reported at 2017-Oct-22 21:39 UTC. Time now 2017-Oct-22 22:59 UTC.
Position N 44°02' W 068°51'.

Length 40 m; draft 3.2 m.

Type: Passenger vessel. MMSI: 367342230.

Date/timePositionNaut miles runAvg speedWind from/ knotsBaromVisibWave heightAir tempDewpointWater temp
2017-Oct-22 21:39N 44°02' W 068°51'310.6
2017-Oct-22 21:22N 44°04' W 068°55'411.1
2017-Oct-22 20:58N 44°06' W 069°00'3 2.3
2017-Oct-22 19:51N 44°06' W 069°04'511.1
2017-Oct-22 19:24N 44°05' W 068°57'5 4.2
2017-Oct-22 18:11N 44°03' W 068°51'410.8
2017-Oct-22 17:47N 44°05' W 068°56'6 2.9
2017-Oct-22 15:35N 44°06' W 069°05'111.1
2017-Oct-22 15:30N 44°06' W 069°04'611.7
2017-Oct-22 15:01N 44°05' W 068°56'2 1.9
2017-Oct-22 13:46N 44°04' W 068°53'610.2
2017-Oct-22 13:08N 44°06' W 069°02'3 3.7
2017-Oct-22 12:14N 44°06' W 069°06'3 9.6
2017-Oct-22 11:58N 44°06' W 069°03'611.0
2017-Oct-22 11:27N 44°04' W 068°55'3 0.2
2017-Oct-21 21:34N 44°03' W 068°52'211.1
2017-Oct-21 21:25N 44°04' W 068°54'711.1
2017-Oct-21 20:46N 44°06' W 069°03'2 3.2
2017-Oct-21 20:03N 44°06' W 069°06'1 5.2
2017-Oct-21 19:57N 44°06' W 069°06'510.9
2017-Oct-21 19:30N 44°05' W 068°59'510.3
2017-Oct-21 18:59N 44°03' W 068°53'1 1.7
2017-Oct-21 18:08N 44°02' W 068°51'211.6
2017-Oct-21 18:00N 44°03' W 068°53'611.0
2017-Oct-21 17:28N 44°06' W 069°00'4 2.6
2017-Oct-21 15:44N 44°06' W 069°06'310.1
2017-Oct-21 15:25N 44°06' W 069°02'510.9
2017-Oct-21 15:00N 44°05' W 068°56'4 3.9
2017-Oct-21 13:56N 44°02' W 068°51'510.4
2017-Oct-21 13:25N 44°05' W 068°57'511.1
2017-Oct-21 12:56N 44°06' W 069°04'1 2.3
2017-Oct-21 12:17N 44°06' W 069°06'4 9.6
2017-Oct-21 11:51N 44°06' W 069°01'411.1
2017-Oct-21 11:29N 44°04' W 068°55'3 0.2
2017-Oct-20 21:39N 44°03' W 068°52'211.4
2017-Oct-20 21:29N 44°04' W 068°54'510.9
2017-Oct-20 21:00N 44°06' W 069°01'4 3.4
2017-Oct-20 19:58N 44°06' W 069°05'510.4
2017-Oct-20 19:28N 44°05' W 068°58'510.0
2017-Oct-20 18:59N 44°03' W 068°52'1 0.7
2017-Oct-20 17:56N 44°04' W 068°53'511.3
2017-Oct-20 17:29N 44°06' W 068°60'4 2.3
2017-Oct-20 15:39N 44°06' W 069°05'212.1
2017-Oct-20 15:29N 44°06' W 069°03'510.6
2017-Oct-20 15:00N 44°05' W 068°56'2 1.2
2017-Oct-20 13:45N 44°04' W 068°54'310.6
2017-Oct-20 13:29N 44°05' W 068°57'6 5.1
2017-Oct-20 12:14N 44°06' W 069°06'2 9.7
2017-Oct-20 11:59N 44°06' W 069°03'9 0.7
2017-Oct-19 21:50N 44°02' W 068°51'410.0
2017-Oct-19 21:24N 44°05' W 068°56'610.0
2017-Oct-19 20:50N 44°06' W 069°04'2 4.0
2017-Oct-19 20:18N 44°06' W 069°06'1 3.0
2017-Oct-19 20:00N 44°06' W 069°05'610.2
2017-Oct-19 19:23N 44°05' W 068°57'2 1.5
2017-Oct-19 17:53N 44°04' W 068°54'411.1
2017-Oct-19 17:29N 44°06' W 068°60'5 2.9
2017-Oct-19 15:50N 44°06' W 069°06'5 9.3
2017-Oct-19 15:15N 44°05' W 068°59'310.8
2017-Oct-19 14:58N 44°04' W 068°55'2 1.8
2017-Oct-19 13:49N 44°03' W 068°53'410.4
2017-Oct-19 13:26N 44°05' W 068°57'510.7
2017-Oct-19 13:00N 44°06' W 069°04'2 3.1
2017-Oct-19 12:19N 44°06' W 069°06'3 8.4
2017-Oct-19 11:54N 44°06' W 069°02'611.0
2017-Oct-19 11:19N 44°04' W 068°53'2 0.1
2017-Oct-18 21:40N 44°03' W 068°51'210.5
2017-Oct-18 21:27N 44°04' W 068°54'9 6.8
2017-Oct-18 20:04N 44°06' W 069°06'1 6.4
2017-Oct-18 19:57N 44°06' W 069°05'510.8
2017-Oct-18 19:30N 44°05' W 068°59'5 3.6
2017-Oct-18 18:00N 44°03' W 068°52'611.2
2017-Oct-18 17:27N 44°06' W 068°60'5 3.5
2017-Oct-18 16:05N 44°06' W 069°06'0 1.2
2017-Oct-18 15:56N 44°06' W 069°06'510.0
2017-Oct-18 15:24N 44°06' W 068°59'510.7
2017-Oct-18 14:58N 44°04' W 068°53'2 1.7
2017-Oct-18 13:55N 44°03' W 068°51'610.8
2017-Oct-18 13:23N 44°05' W 068°58'410.9
2017-Oct-18 13:00N 44°06' W 069°04'1 0.8
2017-Oct-18 12:11N 44°06' W 069°05'211.2
2017-Oct-18 12:00N 44°06' W 069°02'510.7
2017-Oct-18 11:31N 44°04' W 068°55'4 0.3
2017-Oct-17 21:51N 44°02' W 068°51'4 9.8
2017-Oct-17 21:26N 44°05' W 068°56'611.0
2017-Oct-17 20:51N 44°06' W 069°04'2 4.3
2017-Oct-17 20:29N 44°06' W 069°06'4 8.8
2017-Oct-17 19:59N 44°06' W 069°00'3 1.2
2017-Oct-17 17:53N 44°06' W 069°04'2 2.2
2017-Oct-17 17:01N 44°06' W 069°06'0 0.0
2017-Oct-17 16:59N 44°06' W 069°06'0 0.0
2017-Oct-17 16:01N 44°06' W 069°06'0 0.9
2017-Oct-17 15:47N 44°06' W 069°06'3 9.4
2017-Oct-17 15:29N 44°06' W 069°02'610.6
2017-Oct-17 14:54N 44°04' W 068°54'2 1.7
2017-Oct-17 13:48N 44°03' W 068°52'510.8
2017-Oct-17 13:19N 44°05' W 068°58'411.0
2017-Oct-17 12:59N 44°06' W 069°04'2 3.1
2017-Oct-17 12:19N 44°06' W 069°06'4 9.1
2017-Oct-17 11:51N 44°06' W 069°01'410.9
2017-Oct-17 11:27N 44°04' W 068°55'3 0.2
2017-Oct-16 21:37N 44°03' W 068°52'210.0
2017-Oct-16 21:23N 44°04' W 068°54'410.6
2017-Oct-16 21:00N 44°05' W 068°60'4 3.2
2017-Oct-16 19:50N 44°06' W 069°05'511.0
2017-Oct-16 19:25N 44°05' W 068°58'3 2.2
2017-Oct-16 17:52N 44°04' W 068°54'511.2
2017-Oct-16 17:27N 44°06' W 069°00'5 4.4
2017-Oct-16 16:25N 44°06' W 069°06'0 0.0
2017-Oct-16 15:56N 44°06' W 069°06'5 7.7
2017-Oct-16 15:15N 44°06' W 068°59'310.2
2017-Oct-16 14:59N 44°05' W 068°56'4 3.8
2017-Oct-16 13:53N 44°02' W 068°51'511.1
2017-Oct-16 13:25N 44°05' W 068°57'611.0
2017-Oct-16 12:52N 44°06' W 069°05'1 0.9
2017-Oct-16 12:14N 44°06' W 069°06'410.8
2017-Oct-16 11:54N 44°06' W 069°01'410.2
2017-Oct-16 11:29N 44°05' W 068°56'3 0.2
2017-Oct-15 21:31N 44°03' W 068°53'010.6
2017-Oct-15 21:29N 44°03' W 068°53'610.4
2017-Oct-15 20:57N 44°06' W 068°60'4 3.8
2017-Oct-15 19:54N 44°06' W 069°06'510.9
2017-Oct-15 19:28N 44°06' W 068°59'5 3.2
2017-Oct-15 17:58N 44°04' W 068°53'610.9
2017-Oct-15 17:27N 44°06' W 069°00'4 2.7
2017-Oct-15 15:48N 44°06' W 069°06'3 8.7
2017-Oct-15 15:29N 44°06' W 069°03'510.5
2017-Oct-15 15:00N 44°05' W 068°56'3 2.2
2017-Oct-15 13:46N 44°03' W 068°53'310.4
2017-Oct-15 13:29N 44°05' W 068°56'6 4.7
2017-Oct-15 12:08N 44°06' W 069°05'211.1
2017-Oct-15 11:59N 44°06' W 069°02'710.9
2017-Oct-15 11:22N 44°04' W 068°53'1 0.1
2017-Oct-14 21:38N 44°03' W 068°52'110.7
2017-Oct-14 21:30N 44°04' W 068°53'510.7
2017-Oct-14 21:00N 44°06' W 069°01'1 0.4
2017-Oct-14 19:36N 44°06' W 069°01'110.9
2017-Oct-14 19:29N 44°06' W 068°59'7 5.5
2017-Oct-14 18:14N 44°02' W 068°51'2 9.9
2017-Oct-14 18:00N 44°04' W 068°53'610.6
2017-Oct-14 17:27N 44°06' W 069°01'4 4.9
2017-Oct-14 16:40N 44°06' W 069°06'0 0.0
2017-Oct-14 16:10N 44°06' W 069°06'0 0.0
2017-Oct-14 15:56N 44°06' W 069°06'3 6.7
2017-Oct-14 15:26N 44°06' W 069°02'710.4
2017-Oct-14 14:45N 44°03' W 068°53'1 1.1
2017-Oct-14 13:37N 44°04' W 068°54'111.3
2017-Oct-14 13:30N 44°05' W 068°56'711.1
2017-Oct-14 12:54N 44°06' W 069°05'0 0.1
2017-Oct-14 12:10N 44°06' W 069°05'210.7
2017-Oct-14 11:58N 44°06' W 069°02'9 0.6
2017-Oct-13 21:47N 44°02' W 068°51'310.4
2017-Oct-13 21:29N 44°04' W 068°55'7 4.6
2017-Oct-13 19:55N 44°06' W 069°04'611.2
2017-Oct-13 19:25N 44°05' W 068°57'1 0.6
2017-Oct-13 17:58N 44°05' W 068°56'610.6
2017-Oct-13 17:26N 44°06' W 069°03'2 1.1
2017-Oct-13 15:41N 44°06' W 069°06'2 9.5
2017-Oct-13 15:30N 44°06' W 069°04'610.8
2017-Oct-13 14:56N 44°04' W 068°55'3 3.0
2017-Oct-13 13:58N 44°03' W 068°52'710.8
2017-Oct-13 13:20N 44°06' W 069°00'2 1.9
2017-Oct-13 12:05N 44°06' W 069°04'111.0
2017-Oct-13 12:00N 44°06' W 069°02'510.9
2017-Oct-13 11:29N 44°04' W 068°55'  

Dump ship's entire track history